createdAt,value
2023-05-10T00:00:24.867Z,100606.55
2023-05-10T00:02:51.962Z,100608.64
2023-05-10T00:05:18.854Z,100607.65
2023-05-10T00:07:46.153Z,100608.27
2023-05-10T00:10:12.979Z,100606.61
2023-05-10T00:12:39.837Z,100603.98
2023-05-10T00:15:07.483Z,100602.86
2023-05-10T00:17:34.270Z,100604.61
2023-05-10T00:20:01.614Z,100599.80
2023-05-10T00:22:28.468Z,100600.88
2023-05-10T00:24:55.562Z,100600.71
2023-05-10T00:27:22.369Z,100599.13
2023-05-10T00:29:49.155Z,100597.45
2023-05-10T00:32:16.152Z,100599.52
2023-05-10T00:34:43.604Z,100599.33
2023-05-10T00:37:10.560Z,100600.10
2023-05-10T00:39:37.376Z,100596.61
2023-05-10T00:42:05.567Z,100595.70
2023-05-10T00:44:32.620Z,100594.48
2023-05-10T00:46:59.581Z,100598.55
2023-05-10T00:49:26.370Z,100597.23
2023-05-10T00:51:53.161Z,100595.65
2023-05-10T00:54:20.771Z,100599.34
2023-05-10T00:56:50.065Z,100598.23
2023-05-10T00:59:18.144Z,100590.02
2023-05-10T01:01:48.287Z,100590.84
2023-05-10T01:04:15.452Z,100596.74
2023-05-10T01:06:42.771Z,100596.59
2023-05-10T01:09:09.673Z,100600.60
2023-05-10T01:11:36.927Z,100602.27
2023-05-10T01:14:03.777Z,100598.63
2023-05-10T01:16:32.796Z,100598.76
2023-05-10T01:18:59.572Z,100598.55
2023-05-10T01:21:48.662Z,100592.73
2023-05-10T01:24:53.036Z,100590.14
2023-05-10T01:27:19.798Z,100593.98
2023-05-10T01:30:15.499Z,100595.88
2023-05-10T01:32:42.954Z,100589.34
2023-05-10T01:35:35.420Z,100592.45
2023-05-10T01:38:13.013Z,100590.88
2023-05-10T01:41:02.587Z,100590.20
2023-05-10T01:43:38.345Z,100587.54
2023-05-10T01:46:12.036Z,100582.61
2023-05-10T01:48:48.349Z,100582.00
2023-05-10T01:51:21.526Z,100579.45
2023-05-10T01:53:48.932Z,100579.38
2023-05-10T01:56:16.806Z,100576.83
2023-05-10T01:58:46.579Z,100576.82
2023-05-10T02:01:13.470Z,100577.15
2023-05-10T02:03:40.757Z,100578.54
2023-05-10T02:06:07.861Z,100577.30
2023-05-10T02:08:35.176Z,100572.52
2023-05-10T02:11:03.734Z,100572.00
2023-05-10T02:13:31.140Z,100573.02
2023-05-10T02:15:58.097Z,100570.13
2023-05-10T02:18:25.102Z,100572.98
2023-05-10T02:20:51.946Z,100574.80
2023-05-10T02:23:19.345Z,100577.55
2023-05-10T02:25:46.177Z,100578.60
2023-05-10T02:28:14.257Z,100581.25
2023-05-10T02:30:41.169Z,100581.64
2023-05-10T02:33:08.176Z,100578.42
2023-05-10T02:35:35.049Z,100582.23
2023-05-10T02:38:02.459Z,100581.52
2023-05-10T02:40:30.517Z,100577.95
2023-05-10T02:42:57.923Z,100583.48
2023-05-10T02:45:27.426Z,100581.84
2023-05-10T02:47:54.187Z,100580.89
2023-05-10T02:50:21.281Z,100579.84
2023-05-10T02:52:49.329Z,100580.27
2023-05-10T02:55:17.240Z,100577.73
2023-05-10T02:57:53.337Z,100577.94
2023-05-10T03:00:20.317Z,100576.02
2023-05-10T03:02:47.170Z,100575.33
2023-05-10T03:05:14.241Z,100580.73
2023-05-10T03:07:41.078Z,100582.02
2023-05-10T03:10:08.346Z,100582.80
2023-05-10T03:12:58.159Z,100582.10
2023-05-10T03:15:28.065Z,100586.37
2023-05-10T03:18:07.133Z,100584.23
2023-05-10T03:20:39.813Z,100578.36
2023-05-10T03:23:47.564Z,100579.80
2023-05-10T03:26:28.018Z,100585.73
2023-05-10T03:29:00.641Z,100586.30
2023-05-10T03:31:28.076Z,100581.62
2023-05-10T03:33:55.311Z,100580.77
2023-05-10T03:36:25.066Z,100579.67
2023-05-10T03:38:51.952Z,100577.14
2023-05-10T03:41:18.790Z,100580.17
2023-05-10T03:43:45.635Z,100579.14
2023-05-10T03:46:12.458Z,100581.67
2023-05-10T03:48:39.712Z,100582.33
2023-05-10T03:51:06.527Z,100582.81
2023-05-10T03:53:33.335Z,100584.29
2023-05-10T03:56:00.107Z,100587.67
2023-05-10T03:58:26.964Z,100590.04
2023-05-10T04:00:53.841Z,100590.41
2023-05-10T04:03:21.508Z,100592.42
2023-05-10T04:05:48.529Z,100594.16
2023-05-10T04:08:17.502Z,100597.81
2023-05-10T04:10:44.684Z,100594.60
2023-05-10T04:13:12.355Z,100594.17
2023-05-10T04:15:39.147Z,100596.13
2023-05-10T04:18:07.287Z,100599.98
2023-05-10T04:20:35.640Z,100603.52
2023-05-10T04:23:02.458Z,100600.75
2023-05-10T04:25:29.170Z,100597.92
2023-05-10T04:27:55.917Z,100598.52
2023-05-10T04:30:22.732Z,100599.75
2023-05-10T04:32:49.560Z,100597.94
2023-05-10T04:35:16.387Z,100600.41
2023-05-10T04:37:44.383Z,100598.20
2023-05-10T04:40:11.523Z,100598.30
2023-05-10T04:42:38.844Z,100598.04
2023-05-10T04:45:06.625Z,100598.84
2023-05-10T04:47:33.806Z,100596.67
2023-05-10T04:50:00.676Z,100597.09
2023-05-10T04:52:27.472Z,100594.45
2023-05-10T04:54:54.400Z,100589.80
2023-05-10T04:57:21.210Z,100593.38
2023-05-10T04:59:50.233Z,100593.23
2023-05-10T05:02:17.311Z,100593.48
2023-05-10T05:04:44.125Z,100591.11
2023-05-10T05:07:11.150Z,100596.70
2023-05-10T05:09:38.012Z,100598.34
2023-05-10T05:12:05.280Z,100598.69
2023-05-10T05:14:32.125Z,100601.20
2023-05-10T05:16:58.931Z,100599.16
2023-05-10T05:19:25.913Z,100598.07
2023-05-10T05:21:52.677Z,100597.27
2023-05-10T05:24:19.476Z,100595.38
2023-05-10T05:26:46.731Z,100598.16
2023-05-10T05:29:13.580Z,100601.17
2023-05-10T05:31:40.401Z,100597.41
2023-05-10T05:34:10.333Z,100599.91
2023-05-10T05:36:39.451Z,100599.27
2023-05-10T05:39:06.421Z,100597.77
2023-05-10T05:41:33.310Z,100600.38
2023-05-10T05:44:00.146Z,100600.30
2023-05-10T05:46:27.093Z,100599.83
2023-05-10T05:48:54.322Z,100600.08
2023-05-10T05:51:21.291Z,100599.20
2023-05-10T05:53:48.062Z,100599.22
2023-05-10T05:56:14.930Z,100599.88
2023-05-10T05:58:41.869Z,100599.33
2023-05-10T06:01:08.696Z,100595.65
2023-05-10T06:03:35.628Z,100599.92
2023-05-10T06:06:02.665Z,100601.89
2023-05-10T06:08:29.520Z,100602.11
2023-05-10T06:10:56.407Z,100598.95
2023-05-10T06:13:23.379Z,100601.93
2023-05-10T06:15:50.194Z,100596.40
2023-05-10T06:18:16.970Z,100596.59
2023-05-10T06:20:44.155Z,100593.83
2023-05-10T06:23:10.894Z,100597.41
2023-05-10T06:25:38.047Z,100598.48
2023-05-10T06:28:04.859Z,100597.59
2023-05-10T06:30:31.781Z,100596.91
2023-05-10T06:32:58.692Z,100597.73
2023-05-10T06:35:25.636Z,100596.61
2023-05-10T06:37:52.643Z,100594.35
2023-05-10T06:40:20.048Z,100595.02
2023-05-10T06:42:47.655Z,100593.02
2023-05-10T06:45:15.888Z,100596.14
2023-05-10T06:47:43.184Z,100599.73
2023-05-10T06:50:10.684Z,100594.94
2023-05-10T06:52:37.610Z,100593.71
2023-05-10T06:55:05.421Z,100597.44
2023-05-10T06:57:32.516Z,100599.63
2023-05-10T07:00:00.038Z,100601.77
2023-05-10T07:02:27.482Z,100596.63
2023-05-10T07:04:55.390Z,100598.87
2023-05-10T07:07:22.312Z,100599.31
2023-05-10T07:09:50.711Z,100594.34
2023-05-10T07:12:17.652Z,100595.27
2023-05-10T07:14:46.436Z,100591.68
2023-05-10T07:17:13.587Z,100591.81
2023-05-10T07:19:40.694Z,100596.61
2023-05-10T07:22:07.703Z,100593.61
2023-05-10T07:24:34.570Z,100593.81
2023-05-10T07:27:01.335Z,100596.31
2023-05-10T07:29:28.162Z,100593.94
2023-05-10T07:31:57.851Z,100592.09
2023-05-10T07:34:25.718Z,100597.45
2023-05-10T07:36:53.017Z,100596.38
2023-05-10T07:39:27.030Z,100597.94
2023-05-10T07:41:55.711Z,100594.97
2023-05-10T07:44:23.662Z,100590.79
2023-05-10T07:46:50.594Z,100588.54
2023-05-10T07:49:17.546Z,100588.65
2023-05-10T07:51:44.484Z,100581.09
2023-05-10T07:54:11.313Z,100579.29
2023-05-10T07:56:38.114Z,100579.82
2023-05-10T07:59:06.189Z,100575.56
2023-05-10T08:01:35.978Z,100580.05
2023-05-10T08:04:03.262Z,100577.32
2023-05-10T08:06:31.428Z,100574.92
2023-05-10T08:08:58.536Z,100572.48
2023-05-10T08:11:25.769Z,100575.89
2023-05-10T08:13:54.095Z,100572.38
2023-05-10T08:16:21.209Z,100573.33
2023-05-10T08:18:48.365Z,100571.96
2023-05-10T08:21:15.954Z,100569.99
2023-05-10T08:23:44.735Z,100567.09
2023-05-10T08:26:11.904Z,100561.65
2023-05-10T08:28:38.991Z,100555.48
2023-05-10T08:31:06.655Z,100542.84
2023-05-10T08:33:36.792Z,100553.40
2023-05-10T08:36:03.834Z,100557.16
2023-05-10T08:38:30.792Z,100557.84
2023-05-10T08:41:03.341Z,100558.48
2023-05-10T08:43:30.827Z,100564.27
2023-05-10T08:45:58.081Z,100562.09
2023-05-10T08:48:26.115Z,100560.92
2023-05-10T08:50:55.622Z,100562.69
2023-05-10T08:53:22.541Z,100568.15
2023-05-10T08:55:49.711Z,100565.64
2023-05-10T08:58:16.552Z,100564.23
2023-05-10T09:00:45.777Z,100561.44
2023-05-10T09:03:12.820Z,100560.75
2023-05-10T09:05:42.043Z,100558.56
2023-05-10T09:08:09.755Z,100559.92
2023-05-10T09:10:36.547Z,100561.33
2023-05-10T09:13:03.319Z,100565.24
2023-05-10T09:15:30.116Z,100557.87
2023-05-10T09:18:00.437Z,100554.62
2023-05-10T09:20:27.471Z,100552.46
2023-05-10T09:22:54.330Z,100556.29
2023-05-10T09:25:21.292Z,100552.81
2023-05-10T09:27:48.578Z,100547.48
2023-05-10T09:30:33.626Z,100551.25
2023-05-10T09:33:01.357Z,100547.65
2023-05-10T09:35:30.597Z,100553.41
2023-05-10T09:38:03.853Z,100547.61
2023-05-10T09:40:31.079Z,100552.38
2023-05-10T09:43:01.495Z,100549.02
2023-05-10T09:45:30.632Z,100552.58
2023-05-10T09:47:57.703Z,100548.94
2023-05-10T09:50:24.675Z,100549.25
2023-05-10T09:52:52.528Z,100545.33
2023-05-10T09:55:23.849Z,100544.48
2023-05-10T09:57:51.508Z,100543.95
2023-05-10T10:00:21.316Z,100547.01
2023-05-10T10:02:59.619Z,100545.55
2023-05-10T10:05:30.775Z,100546.82
2023-05-10T10:08:01.054Z,100542.31
2023-05-10T10:12:29.061Z,100544.58
2023-05-10T10:14:55.941Z,100544.89
2023-05-10T10:17:22.746Z,100539.45
2023-05-10T10:19:49.593Z,100536.54
2023-05-10T10:22:16.485Z,100537.02
2023-05-10T10:24:43.433Z,100536.34
2023-05-10T10:27:26.452Z,100539.76
2023-05-10T10:30:12.845Z,100538.55
2023-05-10T10:33:28.906Z,100541.61
2023-05-10T10:35:56.643Z,100537.55
2023-05-10T10:38:24.004Z,100532.42
2023-05-10T10:41:02.626Z,100540.98
2023-05-10T10:43:29.756Z,100539.56
2023-05-10T10:46:18.521Z,100541.30
2023-05-10T10:48:50.850Z,100542.03
2023-05-10T10:51:17.654Z,100542.65
2023-05-10T10:53:44.469Z,100541.66
2023-05-10T10:56:16.213Z,100540.63
2023-05-10T10:58:43.538Z,100539.91
2023-05-10T11:01:20.151Z,100536.96
2023-05-10T11:04:19.774Z,100534.70
2023-05-10T11:06:46.632Z,100528.89
2023-05-10T11:09:13.480Z,100525.48
2023-05-10T11:11:52.164Z,100523.23
2023-05-10T11:14:21.351Z,100521.21
2023-05-10T11:16:48.172Z,100517.09
2023-05-10T11:19:16.763Z,100521.13
2023-05-10T11:21:48.750Z,100515.29
2023-05-10T11:24:20.177Z,100515.27
2023-05-10T11:26:47.128Z,100517.29
2023-05-10T11:29:14.538Z,100519.64
2023-05-10T11:31:46.196Z,100514.87
2023-05-10T11:34:13.882Z,100513.19
2023-05-10T11:36:40.714Z,100510.05
2023-05-10T11:39:07.591Z,100512.18
2023-05-10T11:41:34.457Z,100508.92
2023-05-10T11:44:01.240Z,100507.27
2023-05-10T11:46:28.720Z,100508.70
2023-05-10T11:48:58.894Z,100506.59
2023-05-10T11:51:25.964Z,100506.68
2023-05-10T11:53:54.603Z,100506.38
2023-05-10T11:56:21.738Z,100504.17
2023-05-10T11:58:57.439Z,100508.23
2023-05-10T12:01:27.819Z,100504.05
2023-05-10T12:03:56.086Z,100509.11
2023-05-10T12:06:23.334Z,100503.48
2023-05-10T12:08:53.715Z,100502.64
2023-05-10T12:11:22.068Z,100502.98
2023-05-10T12:13:49.151Z,100501.34
2023-05-10T12:16:20.865Z,100500.09
2023-05-10T12:18:52.304Z,100496.66
2023-05-10T12:21:19.975Z,100491.69
2023-05-10T12:23:48.035Z,100488.59
2023-05-10T12:26:14.818Z,100487.06
2023-05-10T12:28:41.644Z,100484.48
2023-05-10T12:31:08.541Z,100490.38
2023-05-10T12:33:45.756Z,100485.70
2023-05-10T12:36:13.959Z,100480.49
2023-05-10T12:38:44.316Z,100479.45
2023-05-10T12:41:13.285Z,100481.16
2023-05-10T12:43:40.580Z,100477.95
2023-05-10T12:46:11.808Z,100480.91
2023-05-10T12:48:39.352Z,100482.52
2023-05-10T12:51:06.641Z,100474.27
2023-05-10T12:53:33.523Z,100480.70
2023-05-10T12:56:00.470Z,100483.27
2023-05-10T12:58:35.677Z,100482.00
2023-05-10T13:01:32.500Z,100482.24
2023-05-10T13:04:01.145Z,100473.59
2023-05-10T13:06:28.073Z,100472.45
2023-05-10T13:08:54.923Z,100472.06
2023-05-10T13:11:22.569Z,100473.41
2023-05-10T13:13:49.433Z,100474.73
2023-05-10T13:16:16.365Z,100470.79
2023-05-10T13:18:43.325Z,100465.42
2023-05-10T13:21:10.263Z,100460.67
2023-05-10T13:23:37.199Z,100459.85
2023-05-10T13:26:04.090Z,100464.98
2023-05-10T13:28:31.429Z,100462.75
2023-05-10T13:30:58.446Z,100462.02
2023-05-10T13:33:25.628Z,100466.77
2023-05-10T13:35:54.409Z,100462.79
2023-05-10T13:38:22.854Z,100464.80
2023-05-10T13:40:53.609Z,100467.77
2023-05-10T13:43:20.770Z,100467.46
2023-05-10T13:45:47.757Z,100465.05
2023-05-10T13:48:14.816Z,100464.32
2023-05-10T13:50:41.720Z,100461.68
2023-05-10T13:53:08.606Z,100461.55
2023-05-10T13:55:35.460Z,100459.48
2023-05-10T13:58:02.319Z,100460.50
2023-05-10T14:00:29.209Z,100461.80
2023-05-10T14:02:56.260Z,100458.77
2023-05-10T14:05:26.231Z,100456.19
2023-05-10T14:07:53.693Z,100458.37
2023-05-10T14:10:21.130Z,100456.93
2023-05-10T14:12:48.060Z,100463.10
2023-05-10T14:15:15.153Z,100461.06
2023-05-10T14:17:42.397Z,100461.18
2023-05-10T14:20:09.599Z,100456.52
2023-05-10T14:22:36.595Z,100457.26
2023-05-10T14:25:03.835Z,100458.82
2023-05-10T14:27:31.444Z,100459.70
2023-05-10T14:29:58.342Z,100461.65
2023-05-10T14:32:25.376Z,100456.98
2023-05-10T14:34:52.286Z,100456.64
2023-05-10T14:37:19.160Z,100454.60
2023-05-10T14:39:46.437Z,100454.19
2023-05-10T14:42:13.324Z,100455.61
2023-05-10T14:44:40.856Z,100453.36
2023-05-10T14:47:08.915Z,100451.39
2023-05-10T14:49:36.909Z,100454.48
2023-05-10T14:52:04.236Z,100450.52
2023-05-10T14:54:31.210Z,100449.59
2023-05-10T14:56:58.099Z,100450.27
2023-05-10T14:59:25.007Z,100447.31
2023-05-10T15:01:52.479Z,100443.05
2023-05-10T15:04:19.941Z,100441.66
2023-05-10T15:06:47.319Z,100440.95
2023-05-10T15:09:14.162Z,100440.91
2023-05-10T15:11:41.009Z,100441.52
2023-05-10T15:14:07.988Z,100442.19
2023-05-10T15:16:36.258Z,100436.96
2023-05-10T15:19:03.743Z,100438.45
2023-05-10T15:21:36.290Z,100434.13
2023-05-10T15:24:03.362Z,100433.90
2023-05-10T15:26:30.267Z,100439.04
2023-05-10T15:28:57.424Z,100438.42
2023-05-10T15:31:24.313Z,100439.85
2023-05-10T15:33:51.173Z,100439.89
2023-05-10T15:36:19.079Z,100440.43
2023-05-10T15:38:46.227Z,100441.77
2023-05-10T15:41:13.092Z,100438.67
2023-05-10T15:43:40.123Z,100439.32
2023-05-10T15:46:07.363Z,100436.67
2023-05-10T15:48:34.313Z,100438.13
2023-05-10T15:51:01.189Z,100434.95
2023-05-10T15:53:28.164Z,100437.75
2023-05-10T15:55:55.272Z,100435.70
2023-05-10T15:58:22.223Z,100439.27
2023-05-10T16:00:49.169Z,100441.24
2023-05-10T16:03:16.598Z,100440.82
2023-05-10T16:05:43.587Z,100440.90
2023-05-10T16:08:10.526Z,100441.23
2023-05-10T16:10:38.334Z,100437.97
2023-05-10T16:13:06.788Z,100436.98
2023-05-10T16:15:34.049Z,100441.33
2023-05-10T16:18:01.110Z,100442.96
2023-05-10T16:20:28.037Z,100440.20
2023-05-10T16:22:54.875Z,100441.59
2023-05-10T16:25:21.950Z,100437.93
2023-05-10T16:27:48.851Z,100440.29
2023-05-10T16:30:15.805Z,100437.77
2023-05-10T16:32:43.009Z,100442.27
2023-05-10T16:35:10.036Z,100440.66
2023-05-10T16:37:36.956Z,100442.62
2023-05-10T16:40:04.551Z,100442.12
2023-05-10T16:42:31.500Z,100441.73
2023-05-10T16:44:58.420Z,100443.44
2023-05-10T16:47:26.968Z,100447.06
2023-05-10T16:49:54.029Z,100446.71
2023-05-10T16:52:20.980Z,100449.12
2023-05-10T16:54:47.904Z,100448.81
2023-05-10T16:57:14.813Z,100451.64
2023-05-10T16:59:41.967Z,100449.67
2023-05-10T17:02:08.877Z,100450.42
2023-05-10T17:04:36.121Z,100454.50
2023-05-10T17:07:03.704Z,100458.11
2023-05-10T17:09:30.691Z,100455.67
2023-05-10T17:11:57.606Z,100456.69
2023-05-10T17:14:24.570Z,100458.90
2023-05-10T17:16:53.223Z,100466.81
2023-05-10T17:19:20.570Z,100464.10
2023-05-10T17:21:47.626Z,100464.08
2023-05-10T17:24:14.698Z,100468.58
2023-05-10T17:26:41.954Z,100472.27
2023-05-10T17:29:08.876Z,100472.09
2023-05-10T17:31:35.742Z,100473.79
2023-05-10T17:34:05.484Z,100478.73
2023-05-10T17:36:33.528Z,100478.27
2023-05-10T17:39:01.142Z,100479.62
2023-05-10T17:41:28.078Z,100483.17
2023-05-10T17:43:54.917Z,100484.14
2023-05-10T17:46:22.548Z,100488.29
2023-05-10T17:48:49.602Z,100488.63
2023-05-10T17:51:16.436Z,100492.41
2023-05-10T17:53:43.537Z,100492.45
2023-05-10T17:56:10.425Z,100494.88
2023-05-10T17:58:38.485Z,100499.36
2023-05-10T18:01:05.739Z,100498.73
2023-05-10T18:03:33.099Z,100503.20
2023-05-10T18:06:00.309Z,100504.70
2023-05-10T18:08:28.879Z,100504.39
2023-05-10T18:10:56.057Z,100508.23
2023-05-10T18:13:24.872Z,100508.95
2023-05-10T18:15:53.481Z,100512.59
2023-05-10T18:18:20.684Z,100517.05
2023-05-10T18:20:47.874Z,100519.74
2023-05-10T18:23:15.399Z,100522.73
2023-05-10T18:25:42.666Z,100523.57
2023-05-10T18:28:10.008Z,100524.77
2023-05-10T18:30:37.655Z,100524.20
2023-05-10T18:33:05.082Z,100527.95
2023-05-10T18:35:32.165Z,100530.20
2023-05-10T18:37:59.208Z,100533.48
2023-05-10T18:40:27.615Z,100532.27
2023-05-10T18:42:55.165Z,100531.89
2023-05-10T18:45:22.147Z,100533.18
2023-05-10T18:47:49.201Z,100535.38
2023-05-10T18:50:17.391Z,100533.95
2023-05-10T18:52:44.569Z,100534.70
2023-05-10T18:55:11.716Z,100532.23
2023-05-10T18:57:41.956Z,100529.27
2023-05-10T19:00:10.756Z,100530.13
2023-05-10T19:02:38.862Z,100530.53
2023-05-10T19:05:08.239Z,100529.05
2023-05-10T19:07:35.098Z,100531.89
2023-05-10T19:10:02.400Z,100533.88
2023-05-10T19:12:29.248Z,100533.70
2023-05-10T19:14:56.184Z,100534.23
2023-05-10T19:17:23.222Z,100535.32
2023-05-10T19:19:50.153Z,100533.15
2023-05-10T19:22:17.738Z,100534.18
2023-05-10T19:24:47.382Z,100533.98
2023-05-10T19:27:14.673Z,100535.73
2023-05-10T19:29:50.571Z,100536.41
2023-05-10T19:32:17.385Z,100540.70
2023-05-10T19:34:44.897Z,100541.06
2023-05-10T19:37:12.366Z,100542.31
2023-05-10T19:39:39.209Z,100542.41
2023-05-10T19:42:06.873Z,100545.09
2023-05-10T19:44:33.761Z,100541.21
2023-05-10T19:47:01.355Z,100542.20
2023-05-10T19:49:29.243Z,100541.20
2023-05-10T19:51:56.490Z,100540.96
2023-05-10T19:54:23.284Z,100543.14
2023-05-10T19:56:50.016Z,100547.52
2023-05-10T19:59:16.893Z,100548.73
2023-05-10T20:01:43.680Z,100546.81
2023-05-10T20:04:10.820Z,100547.13
2023-05-10T20:06:37.727Z,100547.10
2023-05-10T20:09:04.989Z,100546.49
2023-05-10T20:11:31.835Z,100544.02
2023-05-10T20:14:02.624Z,100543.73
2023-05-10T20:16:31.602Z,100545.70
2023-05-10T20:18:58.410Z,100545.55
2023-05-10T20:21:26.541Z,100544.71
2023-05-10T20:23:53.437Z,100548.06
2023-05-10T20:26:20.216Z,100550.70
2023-05-10T20:28:46.940Z,100552.58
2023-05-10T20:31:13.759Z,100548.69
2023-05-10T20:33:40.646Z,100548.50
2023-05-10T20:36:09.740Z,100549.96
2023-05-10T20:38:36.949Z,100547.84
2023-05-10T20:41:03.771Z,100547.55
2023-05-10T20:43:30.663Z,100549.00
2023-05-10T20:45:57.572Z,100547.10
2023-05-10T20:48:24.366Z,100548.06
2023-05-10T20:50:51.831Z,100548.34
2023-05-10T20:53:18.631Z,100547.13
2023-05-10T20:55:45.650Z,100542.36
2023-05-10T20:58:12.708Z,100542.42
2023-05-10T21:00:39.576Z,100539.56
2023-05-10T21:03:06.420Z,100544.65
2023-05-10T21:05:33.388Z,100544.96
2023-05-10T21:08:00.557Z,100543.92
2023-05-10T21:10:28.433Z,100544.58
2023-05-10T21:12:55.910Z,100544.90
2023-05-10T21:15:24.724Z,100547.05
2023-05-10T21:17:53.931Z,100545.54
2023-05-10T21:20:21.022Z,100544.33
2023-05-10T21:22:47.807Z,100543.30
2023-05-10T21:25:14.728Z,100544.25
2023-05-10T21:27:41.543Z,100540.65
2023-05-10T21:30:09.536Z,100541.76
2023-05-10T21:32:36.921Z,100546.55
2023-05-10T21:35:04.401Z,100544.98
2023-05-10T21:37:31.460Z,100545.95
2023-05-10T21:39:58.273Z,100545.91
2023-05-10T21:42:25.266Z,100544.65
2023-05-10T21:44:52.973Z,100545.67
2023-05-10T21:47:20.585Z,100547.85
2023-05-10T21:49:47.892Z,100549.61
2023-05-10T21:52:15.035Z,100550.72
2023-05-10T21:54:42.156Z,100550.35
2023-05-10T21:57:08.957Z,100550.73
2023-05-10T21:59:35.739Z,100547.54
2023-05-10T22:02:02.506Z,100546.41
2023-05-10T22:04:29.264Z,100550.23
2023-05-10T22:06:56.071Z,100548.54
2023-05-10T22:09:24.432Z,100548.18
2023-05-10T22:11:51.326Z,100549.11
2023-05-10T22:14:18.183Z,100547.77
2023-05-10T22:16:44.886Z,100550.27
2023-05-10T22:19:11.691Z,100551.15
2023-05-10T22:21:38.523Z,100549.30
2023-05-10T22:24:05.391Z,100549.44
2023-05-10T22:26:32.208Z,100550.95
2023-05-10T22:29:48.978Z,100550.38
2023-05-10T22:32:15.895Z,100551.11
2023-05-10T22:34:43.331Z,100552.90
2023-05-10T22:37:10.437Z,100552.50
2023-05-10T22:39:37.349Z,100554.51
2023-05-10T22:42:04.878Z,100552.86
2023-05-10T22:44:31.861Z,100558.14
2023-05-10T22:46:58.688Z,100561.02
2023-05-10T22:49:25.862Z,100556.05
2023-05-10T22:51:52.781Z,100555.38
2023-05-10T22:54:19.692Z,100558.27
2023-05-10T22:56:46.503Z,100556.70
2023-05-10T22:59:13.577Z,100557.55
2023-05-10T23:01:40.929Z,100558.88
2023-05-10T23:04:08.338Z,100558.73
2023-05-10T23:06:35.186Z,100558.44
2023-05-10T23:09:02.008Z,100559.38
2023-05-10T23:11:30.105Z,100558.81
2023-05-10T23:13:56.959Z,100558.26
2023-05-10T23:16:23.733Z,100560.52
2023-05-10T23:18:50.605Z,100560.20
2023-05-10T23:21:17.647Z,100558.98
2023-05-10T23:23:44.576Z,100556.70
2023-05-10T23:26:11.470Z,100560.05
2023-05-10T23:28:38.486Z,100559.58
2023-05-10T23:31:05.341Z,100561.93
2023-05-10T23:33:32.155Z,100562.21
2023-05-10T23:35:58.937Z,100561.95
2023-05-10T23:38:26.180Z,100565.49
2023-05-10T23:40:52.946Z,100566.80
2023-05-10T23:43:21.758Z,100566.13
2023-05-10T23:45:55.674Z,100568.47
2023-05-10T23:48:22.744Z,100570.75
2023-05-10T23:50:49.729Z,100570.59
2023-05-10T23:53:16.855Z,100570.98
2023-05-10T23:55:43.936Z,100573.33
2023-05-10T23:58:10.718Z,100573.20
